Flight Track Log - Related Links

Times and Time Zones

All times are in EDT time to prevent confusion due to time zone crossing. See the N866TC flight status page for this flight to view local times or setup timezone preferences in your user account.

Time Position Orientation Groundspeed Altitude Reporting Facility
EDT Latitude Longitude Course Direction KTS MPH feet Rate Location/Type
Sat 04:00:52 PM 41.5647 -74.1158 262° West 226 260 6,900  Level Boston Center
Sat 04:01:52 PM 41.5531 -74.2072 260° West 226 260 8,600 2,325 Climbing Boston Center
Sat 04:03:32 PM 41.6286 -74.3317 309° West 258 297 13,100 2,609 Climbing New York Center
Sat 04:04:33 PM 41.6742 -74.4064 309° West 281 323 15,600 1,983 Climbing New York Center
Sat 04:05:30 PM 41.6664 -74.5253 265° West 281 323 17,000 706 Climbing New York Center
Sat 04:06:32 PM 41.6442 -74.6322 254° West 320 368 17,000 836 Level New York Center
Sat 04:07:32 PM 41.6189 -74.7667 256° West 347 399 18,700 1,884 Climbing New York Center
Sat 04:08:33 PM 41.5939 -74.8900 255° West 347 399 20,800 2,085 Climbing New York Center
Sat 04:09:30 PM 41.5731 -75.0053 256° West 340 391 22,800 1,831 Climbing New York Center
Sat 04:10:31 PM 41.5506 -75.1064 253° West 332 382 24,400 1,967 Climbing New York Center
Sat 04:11:32 PM 41.5272 -75.2322 256° West 326 375 26,800 2,218 Climbing New York Center
Sat 04:12:30 PM 41.5042 -75.3442 255° West 320 368 28,800 1,815 Climbing New York Center
Sat 04:13:31 PM 41.4839 -75.4397 254° West 309 356 30,400 1,967 Climbing New York Center
Sat 04:14:32 PM 41.4997 -75.5600 280° West 302 348 32,800 2,067 Climbing New York Center
Sat 04:15:30 PM 41.5250 -75.6589 289° West 302 348 34,500 1,815 Climbing New York Center
Sat 04:16:31 PM 41.5328 -75.7731 275° West 296 341 36,400 1,377 Climbing New York Center
Sat 04:17:32 PM 41.5200 -75.8744 260° West 302 348 37,300 1,008 Climbing New York Center
Sat 04:18:30 PM 41.5083 -75.9983 263° West 311 358 38,400 1,068 Climbing New York Center
Sat 04:19:30 PM 41.4969 -76.1164 263° West 316 364 39,400 942 Climbing New York Center
Sat 04:20:31 PM 41.4808 -76.2397 260° West 327 376 40,300 694 Climbing New York Center
Sat 04:21:31 PM 41.4664 -76.3689 262° West 360 414 40,800 500 Climbing New York Center
Sat 04:22:31 PM 41.4519 -76.5006 262° West 365 420 41,300 446 Climbing New York Center
Sat 04:23:32 PM 41.4350 -76.6319 260° West 365 420 41,700 496 Climbing New York Center
Sat 04:24:32 PM 41.4186 -76.7550 260° West 365 420 42,300 559 Climbing New York Center
Sat 04:25:30 PM 41.4036 -76.8836 261° West 360 414 42,800 353 Climbing New York Center
Sat 04:26:31 PM 41.3867 -77.0094 260° West 360 414 43,000 99 Climbing New York Center
Sat 04:27:31 PM 41.3694 -77.1378 260° West 360 414 43,000  Level New York Center
Sat 04:28:32 PM 41.3539 -77.2689 261° West 360 414 43,000  Level New York Center
Sat 04:29:33 PM 41.3364 -77.4000 260° West 360 414 43,000  Level New York Center
Sat 04:31:32 PM 41.3036 -77.6586 261° West 357 411 43,000  Level Cleveland Center
Sat 04:32:32 PM 41.2878 -77.7781 260° West 357 411 43,000  Level Cleveland Center
Sat 04:33:32 PM 41.2719 -77.9058 261° West 357 411 43,000  Level Cleveland Center
Sat 04:34:32 PM 41.2561 -78.0308 260° West 357 411 43,000  Level Cleveland Center
Sat 04:35:32 PM 41.2381 -78.1614 260° West 357 411 43,000  Level Cleveland Center
Sat 04:36:32 PM 41.2181 -78.3031 259° West 357 411 43,000  Level Cleveland Center
Sat 04:37:32 PM 41.2039 -78.4333 262° West 357 411 43,000  Level Cleveland Center
Sat 04:38:32 PM 41.1856 -78.5608 259° West 357 411 43,000  Level Cleveland Center
Sat 04:39:32 PM 41.1667 -78.6856 259° West 357 411 43,000  Level Cleveland Center
Sat 04:40:32 PM 41.1500 -78.8128 260° West 357 411 43,000  Level Cleveland Center
Sat 04:41:32 PM 41.1311 -78.9428 259° West 357 411 43,000  Level Cleveland Center
Sat 04:42:32 PM 41.1139 -79.0644 259° West 357 411 43,000  Level Cleveland Center
Sat 04:43:32 PM 41.0947 -79.1917 259° West 351 404 43,000  Level Cleveland Center
Sat 04:44:32 PM 41.0775 -79.3161 260° West 351 404 43,000  Level Cleveland Center
Sat 04:45:32 PM 41.0622 -79.4403 261° West 351 404 43,000  Level Cleveland Center
Sat 04:46:32 PM 41.0425 -79.5644 258° West 351 404 43,000  Level Cleveland Center
Sat 04:47:32 PM 41.0225 -79.6914 258° West 351 404 43,000  Level Cleveland Center
Sat 04:48:32 PM 41.0047 -79.8128 259° West 351 404 43,000  Level Cleveland Center
Sat 04:49:32 PM 40.9867 -79.9394 259° West 351 404 43,000  Level Cleveland Center
Sat 04:50:32 PM 40.9686 -80.0661 259° West 351 404 43,000  Level Cleveland Center
Sat 04:51:32 PM 40.9483 -80.1900 258° West 351 404 43,000  Level Cleveland Center
Sat 04:52:32 PM 40.9300 -80.3164 259° West 351 404 43,000  Level Cleveland Center
Sat 04:53:32 PM 40.9092 -80.4403 257° West 351 404 43,000  Level Cleveland Center
Sat 04:54:32 PM 40.8928 -80.5667 260° West 351 404 43,000  Level Cleveland Center
Sat 04:55:32 PM 40.8717 -80.6903 257° West 351 404 43,000  Level Cleveland Center
Sat 04:56:32 PM 40.8528 -80.8028 258° West 351 404 43,000  Level Cleveland Center
Sat 04:57:32 PM 40.8339 -80.9289 259° West 351 404 43,000  Level Cleveland Center
Sat 04:58:32 PM 40.8083 -81.0550 255° West 351 404 43,000  Level Cleveland Center
Sat 04:59:32 PM 40.7889 -81.1836 259° West 356 410 43,000  Level Cleveland Center
Sat 05:00:32 PM 40.7675 -81.3069 257° West 356 410 43,000  Level Cleveland Center
Sat 05:01:32 PM 40.7478 -81.4328 258° West 356 410 43,000  Level Cleveland Center
Sat 05:03:33 PM 40.7061 -81.6886 258° West 352 405 43,000  Level Indianapolis Center
Sat 05:04:34 PM 40.6847 -81.8144 257° West 349 402 43,000  Level Indianapolis Center
Sat 05:05:35 PM 40.6636 -81.9392 257° West 347 399 43,000  Level Indianapolis Center
Sat 05:06:36 PM 40.6425 -82.0636 257° West 344 396 43,000  Level Indianapolis Center
Sat 05:07:38 PM 40.6211 -82.1878 257° West 345 397 43,000  Level Indianapolis Center
Sat 05:08:39 PM 40.6006 -82.3128 258° West 345 397 43,000  Level Indianapolis Center
Sat 05:09:40 PM 40.5794 -82.4378 258° West 347 399 43,000  Level Indianapolis Center
Sat 05:10:41 PM 40.5567 -82.5636 257° West 349 402 43,000  Level Indianapolis Center
Sat 05:11:43 PM 40.5353 -82.6897 257° West 350 403 43,000  Level Indianapolis Center
Sat 05:12:44 PM 40.5111 -82.8281 257° West 352 405 43,000  Level Indianapolis Center
Sat 05:13:45 PM 40.4889 -82.9517 257° West 346 398 43,000  Level Indianapolis Center
Sat 05:14:47 PM 40.4661 -83.0769 257° West 350 403 43,000  Level Indianapolis Center
Sat 05:15:48 PM 40.4431 -83.2017 256° West 350 403 43,000  Level Indianapolis Center
Sat 05:16:49 PM 40.4214 -83.3269 257° West 352 405 43,000  Level Indianapolis Center
Sat 05:17:51 PM 40.3978 -83.4539 256° West 355 409 43,000  Level Indianapolis Center
Sat 05:18:52 PM 40.3747 -83.5819 257° West 360 414 43,000  Level Indianapolis Center
Sat 05:19:53 PM 40.3469 -83.7325 256° West 363 418 43,000  Level Indianapolis Center
Sat 05:20:54 PM 40.3225 -83.8611 256° West 364 419 43,000  Level Indianapolis Center
Sat 05:21:56 PM 40.2978 -83.9897 256° West 362 417 43,000  Level Indianapolis Center
Sat 05:22:57 PM 40.2733 -84.1183 256° West 361 415 43,000  Level Indianapolis Center
Sat 05:23:58 PM 40.2494 -84.2469 256° West 361 415 43,000  Level Indianapolis Center
Sat 05:24:59 PM 40.2247 -84.3731 256° West 357 411 43,000  Level Indianapolis Center
Sat 05:26:00 PM 40.2000 -84.4986 256° West 354 407 43,000  Level Indianapolis Center
Sat 05:27:02 PM 40.1750 -84.6244 255° West 355 409 43,000  Level Indianapolis Center
Sat 05:28:03 PM 40.1506 -84.7503 256° West 354 407 43,000 49 Level Indianapolis Center
Sat 05:29:04 PM 40.1261 -84.8778 256° West 357 411 43,100 295 Climbing Indianapolis Center
Sat 05:30:05 PM 40.1014 -84.9939 254° West 355 409 43,600 537 Climbing Indianapolis Center
Sat 05:31:07 PM 40.0731 -85.1425 256° West 353 406 44,200 537 Climbing Indianapolis Center
Sat 05:32:08 PM 40.0475 -85.2664 255° West 353 406 44,700 393 Climbing Indianapolis Center
Sat 05:33:09 PM 40.0219 -85.3875 255° West 349 402 45,000 148 Climbing Indianapolis Center
Sat 05:34:10 PM 39.9983 -85.5139 256° West 358 412 45,000  Level Indianapolis Center
Sat 05:35:11 PM 39.9717 -85.6400 255° West 363 418 45,000  Level Indianapolis Center
Sat 05:36:13 PM 39.9458 -85.7667 255° West 364 419 45,000  Level Indianapolis Center
Sat 05:37:14 PM 39.9200 -85.8906 255° West 358 412 45,000  Level Indianapolis Center
Sat 05:38:15 PM 39.8947 -86.0131 255° West 355 409 45,000  Level Indianapolis Center
Sat 05:39:16 PM 39.8653 -86.1586 255° West 351 404 45,000  Level Indianapolis Center
Sat 05:40:17 PM 39.8372 -86.2828 254° West 356 410 45,000  Level Indianapolis Center
Sat 05:41:19 PM 39.8111 -86.4058 255° West 354 407 45,000  Level Indianapolis Center
Sat 05:42:20 PM 39.7878 -86.5222 255° West 359 413 45,000  Level Indianapolis Center
Sat 05:43:21 PM 39.7608 -86.6442 254° West 356 410 45,000  Level Indianapolis Center
Sat 05:44:22 PM 39.7342 -86.7689 254° West 361 415 45,000  Level Indianapolis Center
Sat 05:45:23 PM 39.7017 -86.9197 254° West 364 419 45,000  Level Indianapolis Center
Sat 05:46:24 PM 39.6739 -87.0442 254° West 363 418 45,000  Level Indianapolis Center
Sat 05:47:25 PM 39.6475 -87.1631 254° West 348 400 45,000  Level Indianapolis Center
Sat 05:48:27 PM 39.6214 -87.2806 254° West 341 392 45,000  Level Indianapolis Center
Sat 05:49:28 PM 39.5964 -87.3983 255° West 340 391 45,000  Level Indianapolis Center
Sat 05:50:29 PM 39.5689 -87.5156 253° West 342 394 45,000  Level Indianapolis Center
Sat 05:51:30 PM 39.5422 -87.6342 254° West 344 396 45,000  Level Indianapolis Center
Sat 05:52:31 PM 39.5150 -87.7564 254° West 353 406 45,000  Level Indianapolis Center
Sat 05:53:32 PM 39.4875 -87.8778 254° West 353 406 45,000  Level Indianapolis Center
Sat 05:54:33 PM 39.4597 -88.0014 254° West 358 412 45,000  Level Indianapolis Center
Sat 05:55:34 PM 39.4247 -88.1517 253° West 364 419 45,000  Level Indianapolis Center
Sat 05:56:26 PM 39.4039 -88.2444 254° West 362 417 45,000  Level Kansas City Center
Sat 05:57:26 PM 39.3725 -88.3736 253° West 370 426 45,000  Level Kansas City Center
Sat 05:58:27 PM 39.3425 -88.5042 253° West 377 434 45,000  Level Kansas City Center
Sat 05:59:30 PM 39.3136 -88.6256 253° West 374 430 45,000  Level Kansas City Center
Sat 06:00:32 PM 39.2833 -88.7547 253° West 375 432 45,000  Level Kansas City Center
Sat 06:01:34 PM 39.2475 -88.9081 253° West 373 429 45,000  Level Kansas City Center
Sat 06:02:34 PM 39.2169 -89.0353 253° West 373 429 45,000  Level Kansas City Center
Sat 06:03:35 PM 39.1861 -89.1628 253° West 373 429 45,000  Level Kansas City Center
Sat 06:04:39 PM 39.1539 -89.3044 254° West 374 430 45,000  Level Kansas City Center
Sat 06:05:39 PM 39.1222 -89.4325 252° West 377 434 45,000  Level Kansas City Center
Sat 06:06:40 PM 39.0914 -89.5622 253° West 380 437 45,000  Level Kansas City Center
Sat 06:07:41 PM 39.0572 -89.7019 253° West 381 438 45,000  Level Kansas City Center
Sat 06:08:44 PM 39.0253 -89.8311 252° West 381 438 45,000  Level Kansas City Center
Sat 06:09:45 PM 38.9911 -89.9703 253° West 383 441 45,000  Level Kansas City Center
Sat 06:10:46 PM 38.9475 -90.0828 244° Southwest 381 438 45,000  Level Kansas City Center
Sat 06:11:46 PM 38.8953 -90.1967 240° Southwest 379 436 45,000  Level Kansas City Center
Sat 06:12:50 PM 38.8400 -90.3122 238° Southwest 381 438 45,000  Level Kansas City Center
Sat 06:13:52 PM 38.7831 -90.4294 238° Southwest 384 442 45,000  Level Kansas City Center
Sat 06:14:50 PM 38.7264 -90.5453 238° Southwest 403 464 45,000 -443 Level Kansas City Center
Sat 06:15:54 PM 38.6558 -90.6847 237° Southwest 391 450 44,100 -857 Descending Kansas City Center
Sat 06:16:56 PM 38.6044 -90.7914 238° Southwest 380 437 43,200 -537 Descending Kansas City Center
Sat 06:17:57 PM 38.5492 -90.9044 238° Southwest 379 436 43,000 -99 Descending Kansas City Center
Sat 06:18:57 PM 38.4939 -91.0175 238° Southwest 378 435 43,000  Level Kansas City Center
Sat 06:19:58 PM 38.4375 -91.1317 238° Southwest 381 438 43,000  Level Kansas City Center
Sat 06:20:58 PM 38.3789 -91.2481 237° Southwest 389 448 43,000  Level Kansas City Center
Sat 06:22:02 PM 38.3100 -91.3883 238° Southwest 390 449 43,000 -960 Level Kansas City Center
Sat 06:23:03 PM 38.2569 -91.4936 237° Southwest 395 455 41,000 -2,146 Descending Kansas City Center
Sat 06:24:05 PM 38.1981 -91.6108 237° Southwest 393 452 38,600 -2,341 Descending Kansas City Center
Sat 06:25:06 PM 38.1403 -91.7261 238° Southwest 388 447 36,200 -2,607 Descending Kansas City Center
Sat 06:26:07 PM 38.0889 -91.8750 246° West 383 441 33,300 -2,432 Descending Kansas City Center
Sat 06:28:11 PM 38.0386 -92.1306 256° West 395 455 28,700 -2,270 Descending Kansas City Center
Sat 06:29:12 PM 38.0200 -92.2683 260° West 395 455 26,300 -2,361 Descending Kansas City Center
Sat 06:30:13 PM 37.9967 -92.3986 257° West 394 453 23,900 -2,380 Descending Kansas City Center
Sat 06:31:13 PM 37.9258 -92.4928 226° Southwest 375 432 21,500 -2,607 Descending Kansas City Center
Sat 06:32:15 PM 37.8494 -92.6011 228° Southwest 358 412 18,600 -2,607 Descending Kansas City Center
Sat 06:33:15 PM 37.7894 -92.6811 227° Southwest 334 384 16,200 -2,033 Descending Kansas City Center
Sat 06:34:16 PM 37.7314 -92.7642 229° Southwest 316 364 14,500 -1,623 Descending Kansas City Center
Sat 06:35:17 PM 37.6733 -92.8439 227° Southwest 311 358 12,900 -1,536 Descending Kansas City Center
Sat 06:36:21 PM 37.6181 -92.9178 227° Southwest 299 344 11,300 -1,488 Descending Kansas City Center
Sat 06:37:22 PM 37.5597 -92.9889 224° Southwest 294 338 9,800 -1,537 Descending Kansas City Center
Sat 06:38:22 PM 37.5008 -93.0606 224° Southwest 294 338 8,200 -1,475 Descending Kansas City Center
Sat 06:39:24 PM 37.4517 -93.1350 230° Southwest 286 329 6,800 -1,415 Descending Kansas City Center
Sat 06:40:25 PM 37.4053 -93.2083 231° Southwest 276 318 5,300 -1,438 Descending Kansas City Center
Sat 06:41:25 PM 37.3592 -93.2825 232° Southwest 272 313 3,900 -1,377 Descending Kansas City Center
Sat 06:42:27 PM 37.3081 -93.3508 227° Southwest 236 272 2,500 -1,131 Descending Kansas City Center
Sat 06:43:27 PM 37.2658 -93.3722 202° Southwest 189 217 1,600 -541 Descending Kansas City Center
Sat 06:44:29 PM 37.2292 -93.3872 198° South 180 207 1,400 -194 Descending Kansas City Center
Sat 06:46:00 PM 37.2457 -93.3886 356° North  Level Estimated
Sat 06:53:00 PM 37.2457 -93.3886 165° South  Level Estimated

Login

Don't have an account? Register now (free) for customized features, flight alerts, and more!